This is the latest recevied weather packets stored in our database for station/object KE0PRS. If no packets are shown the sender has not sent any weather packets the latest 1 day(s).
| Time | Temp. | Humidity | Pressure | Rain* | Wind** | Luminosity | Snow |
|---|---|---|---|---|---|---|---|
| 1778033450 | 6.67° C | 78% | 1015.3 hPa | 0 mm | - | 0 W/m² | - |
| 1778033147 | 6.67° C | 78% | 1015.1 hPa | 0 mm | - | 0 W/m² | - |
| 1778032845 | 6.67° C | 77% | 1015 hPa | 0 mm | - | 0 W/m² | - |
| 1778032542 | 6.67° C | 77% | 1015 hPa | 0 mm | - | 0 W/m² | - |
| 1778032239 | 6.67° C | 78% | 1014.8 hPa | 0 mm | - | 0 W/m² | - |
| 1778031632 | 7.22° C | 78% | 1014.7 hPa | 0 mm | - | 0 W/m² | - |
| 1778031027 | 7.22° C | 75% | 1014.6 hPa | 0 mm | - | 1 W/m² | - |
| 1778030723 | 7.78° C | 74% | 1014.8 hPa | 0 mm | - | 2 W/m² | - |
| 1778030420 | 7.78° C | 73% | 1014.6 hPa | 0 mm | - | 4 W/m² | - |
| 1778030118 | 7.78° C | 72% | 1014.7 hPa | 0 mm | - | 5 W/m² | - |
| 1778029814 | 7.78° C | 71% | 1014.9 hPa | 0 mm | - | 6 W/m² | - |
| 1778028907 | 8.33° C | 68% | 1014.6 hPa | 0 mm | - | 11 W/m² | - |
| 1778027996 | 8.89° C | 66% | 1014.7 hPa | 0 mm | - | 9 W/m² | - |
| 1778027389 | 9.44° C | 62% | 1015 hPa | 0 mm | - | 8 W/m² | - |
| 1778027085 | 9.44° C | 60% | 1014.6 hPa | 0 mm | - | 8 W/m² | - |
| 1778026780 | 9.44° C | 60% | 1014.3 hPa | 0 mm | - | 8 W/m² | - |
| 1778026478 | 9.44° C | 59% | 1014.7 hPa | 0 mm | - | 7 W/m² | - |
| 1778026175 | 9.44° C | 59% | 1014.6 hPa | 0 mm | - | 10 W/m² | - |
| 1778024964 | 10° C | 57% | 1013.9 hPa | 0 mm | - | 34 W/m² | - |
| 1778024358 | 10° C | 56% | 1013.6 hPa | 0 mm | - | 51 W/m² | - |
| 1778024056 | 10° C | 55% | 1013.6 hPa | 0 mm | - | 57 W/m² | - |
| 1778022845 | 10.56° C | 56% | 1013.3 hPa | 0 mm | - | 70 W/m² | - |
* Rain latest hour (hover to see other rain measurements)
** Current wind speed in m/s (hover to see current wind gust speed)